WAT2206 RJCO-RJGG
Flight info
| Callsign | WAT2206 |
|---|---|
| Flight time | 2h 16m |
| Altitude | 27000 |
| Route | TSUNO Y38 TOZAN/N0423F290 Y38 MIDER V28 BIWWA |
| Aircraft | B463/M-SDFGIRWY/LB1 |
Departure
| Time | 2026-04-30 08:40 |
|---|---|
| Airport | Sapporo Okadama Airport (RJCO) |
Arrival
| Time | 2026-04-30 10:56 |
|---|---|
| Airport | Chubu Centrair International Airport (RJGG) |
| Time | Latitude | Longitude | Altitude | Speed | Heading |
|---|---|---|---|---|---|
| 2026-04-30 08:08 | 43.11136 | 141.38243 | 37 ft | 0 kts | 224° |
| 2026-04-30 08:36 | 43.11136 | 141.38231 | 34 ft | 2 kts | 311° |
| 2026-04-30 08:36 | 43.11155 | 141.38252 | 34 ft | 6 kts | 63° |
| 2026-04-30 08:36 | 43.11154 | 141.38312 | 34 ft | 7 kts | 127° |
| 2026-04-30 08:36 | 43.11129 | 141.38379 | 34 ft | 9 kts | 89° |
| 2026-04-30 08:37 | 43.11168 | 141.38458 | 33 ft | 11 kts | 44° |
| 2026-04-30 08:37 | 43.11234 | 141.38548 | 31 ft | 14 kts | 45° |
| 2026-04-30 08:37 | 43.11299 | 141.38638 | 31 ft | 8 kts | 44° |
| 2026-04-30 08:37 | 43.11311 | 141.38705 | 31 ft | 8 kts | 124° |
| 2026-04-30 08:38 | 43.11271 | 141.38768 | 30 ft | 9 kts | 123° |
| 2026-04-30 08:38 | 43.11232 | 141.38802 | 30 ft | 4 kts | 59° |
| 2026-04-30 08:38 | 43.11261 | 141.38785 | 30 ft | 5 kts | 322° |
| 2026-04-30 08:38 | 43.11273 | 141.38771 | 30 ft | 0 kts | 315° |
| 2026-04-30 08:39 | 43.11342 | 141.38681 | 31 ft | 47 kts | 317° |
| 2026-04-30 08:39 | 43.11764 | 141.38103 | 26 ft | 120 kts | 314° |
| 2026-04-30 08:39 | 43.12435 | 141.37184 | 322 ft | 142 kts | 317° |
| 2026-04-30 08:40 | 43.13088 | 141.36211 | 971 ft | 141 kts | 297° |
| 2026-04-30 08:40 | 43.13119 | 141.34943 | 1645 ft | 138 kts | 243° |
| 2026-04-30 08:40 | 43.12420 | 141.34186 | 2156 ft | 138 kts | 188° |
| 2026-04-30 08:40 | 43.11395 | 141.34142 | 2318 ft | 157 kts | 185° |
| 2026-04-30 08:41 | 43.10299 | 141.33833 | 2886 ft | 158 kts | 201° |
| 2026-04-30 08:41 | 43.09259 | 141.33325 | 3378 ft | 170 kts | 199° |
| 2026-04-30 08:41 | 43.07901 | 141.32947 | 3249 ft | 222 kts | 192° |
| 2026-04-30 08:41 | 43.06268 | 141.32295 | 3149 ft | 267 kts | 206° |
| 2026-04-30 08:42 | 43.04559 | 141.31021 | 3472 ft | 295 kts | 214° |
| 2026-04-30 08:42 | 43.02786 | 141.29428 | 3992 ft | 315 kts | 216° |
| 2026-04-30 08:42 | 43.00974 | 141.27647 | 4596 ft | 330 kts | 218° |
| 2026-04-30 08:42 | 42.99150 | 141.25771 | 5237 ft | 323 kts | 219° |
| 2026-04-30 08:43 | 42.97432 | 141.23962 | 5789 ft | 305 kts | 219° |
| 2026-04-30 08:43 | 42.95787 | 141.22217 | 6255 ft | 291 kts | 220° |
| 2026-04-30 08:43 | 42.94221 | 141.20549 | 6639 ft | 281 kts | 220° |
| 2026-04-30 08:43 | 42.92686 | 141.18913 | 6968 ft | 288 kts | 220° |
| 2026-04-30 08:44 | 42.91118 | 141.17241 | 7922 ft | 287 kts | 220° |
| 2026-04-30 08:44 | 42.89546 | 141.15570 | 8757 ft | 290 kts | 220° |
| 2026-04-30 08:44 | 42.87931 | 141.13849 | 9536 ft | 294 kts | 220° |
| 2026-04-30 08:44 | 42.86325 | 141.12138 | 10314 ft | 296 kts | 221° |
| 2026-04-30 08:45 | 42.84703 | 141.10414 | 10989 ft | 301 kts | 221° |
| 2026-04-30 08:45 | 42.83047 | 141.08653 | 11594 ft | 307 kts | 221° |
| 2026-04-30 08:45 | 42.81366 | 141.06865 | 12208 ft | 311 kts | 221° |
| 2026-04-30 08:45 | 42.79653 | 141.05051 | 12792 ft | 316 kts | 221° |
| 2026-04-30 08:46 | 42.77895 | 141.03186 | 13364 ft | 321 kts | 221° |
| 2026-04-30 08:46 | 42.76128 | 141.01314 | 13922 ft | 326 kts | 221° |
| 2026-04-30 08:46 | 42.74331 | 140.99411 | 14462 ft | 331 kts | 222° |
| 2026-04-30 08:46 | 42.72506 | 140.97482 | 14987 ft | 335 kts | 222° |
| 2026-04-30 08:47 | 42.70657 | 140.95534 | 15536 ft | 339 kts | 222° |
| 2026-04-30 08:47 | 42.68811 | 140.93590 | 16121 ft | 340 kts | 222° |
| 2026-04-30 08:47 | 42.66938 | 140.91614 | 16658 ft | 343 kts | 223° |
| 2026-04-30 08:47 | 42.65057 | 140.89632 | 17195 ft | 345 kts | 223° |
| 2026-04-30 08:48 | 42.63160 | 140.87634 | 17719 ft | 347 kts | 223° |
| 2026-04-30 08:48 | 42.61261 | 140.85635 | 18228 ft | 349 kts | 223° |
| 2026-04-30 08:48 | 42.59328 | 140.83601 | 18734 ft | 351 kts | 223° |
| 2026-04-30 08:48 | 42.57396 | 140.81572 | 19226 ft | 353 kts | 224° |
| 2026-04-30 08:49 | 42.55452 | 140.79529 | 19703 ft | 355 kts | 224° |
| 2026-04-30 08:49 | 42.53507 | 140.77489 | 20169 ft | 356 kts | 224° |
| 2026-04-30 08:49 | 42.51559 | 140.75446 | 20621 ft | 358 kts | 224° |
| 2026-04-30 08:49 | 42.49583 | 140.73375 | 21066 ft | 360 kts | 224° |
| 2026-04-30 08:50 | 42.47612 | 140.71310 | 21491 ft | 361 kts | 224° |
| 2026-04-30 08:50 | 42.45609 | 140.69215 | 21914 ft | 362 kts | 224° |
| 2026-04-30 08:50 | 42.43621 | 140.67139 | 22321 ft | 364 kts | 224° |
| 2026-04-30 08:50 | 42.41611 | 140.65039 | 22723 ft | 365 kts | 224° |
| 2026-04-30 08:51 | 42.39619 | 140.62961 | 23111 ft | 366 kts | 224° |
| 2026-04-30 08:51 | 42.37600 | 140.60857 | 23491 ft | 368 kts | 224° |
| 2026-04-30 08:51 | 42.35559 | 140.58730 | 23863 ft | 369 kts | 224° |
| 2026-04-30 08:51 | 42.33522 | 140.56609 | 24223 ft | 370 kts | 224° |
| 2026-04-30 08:52 | 42.31490 | 140.54497 | 24568 ft | 371 kts | 224° |
| 2026-04-30 08:52 | 42.29443 | 140.52370 | 24926 ft | 372 kts | 224° |
| 2026-04-30 08:52 | 42.27390 | 140.50236 | 25273 ft | 373 kts | 224° |
| 2026-04-30 08:52 | 42.25330 | 140.48100 | 25617 ft | 374 kts | 224° |
| 2026-04-30 08:53 | 42.23280 | 140.45976 | 25951 ft | 375 kts | 224° |
| 2026-04-30 08:53 | 42.21209 | 140.43832 | 26278 ft | 375 kts | 224° |
| 2026-04-30 08:53 | 42.19136 | 140.41687 | 26601 ft | 376 kts | 224° |
| 2026-04-30 08:53 | 42.17055 | 140.39537 | 26918 ft | 377 kts | 224° |
| 2026-04-30 08:54 | 42.14945 | 140.37355 | 27105 ft | 382 kts | 225° |
| 2026-04-30 08:54 | 42.12814 | 140.35152 | 27143 ft | 392 kts | 225° |
| 2026-04-30 08:54 | 42.10655 | 140.32928 | 27155 ft | 386 kts | 224° |
| 2026-04-30 08:54 | 42.08518 | 140.30733 | 27158 ft | 381 kts | 224° |
| 2026-04-30 08:55 | 42.06450 | 140.28603 | 27121 ft | 375 kts | 224° |
| 2026-04-30 08:55 | 42.04382 | 140.26480 | 27114 ft | 368 kts | 225° |
| 2026-04-30 08:55 | 42.02378 | 140.24420 | 27112 ft | 362 kts | 225° |
| 2026-04-30 08:55 | 42.00401 | 140.22394 | 27112 ft | 357 kts | 225° |
| 2026-04-30 08:56 | 41.98433 | 140.20373 | 27111 ft | 351 kts | 225° |
| 2026-04-30 08:56 | 41.96473 | 140.18362 | 27113 ft | 346 kts | 225° |
| 2026-04-30 08:56 | 41.94579 | 140.16425 | 27114 ft | 341 kts | 225° |
| 2026-04-30 08:56 | 41.92708 | 140.14506 | 27116 ft | 336 kts | 225° |
| 2026-04-30 08:57 | 41.90845 | 140.12602 | 27119 ft | 331 kts | 225° |
| 2026-04-30 08:57 | 41.89019 | 140.10738 | 27117 ft | 327 kts | 225° |
| 2026-04-30 08:57 | 41.87216 | 140.08897 | 27118 ft | 323 kts | 225° |
| 2026-04-30 08:57 | 41.85422 | 140.07065 | 27118 ft | 319 kts | 226° |
| 2026-04-30 08:58 | 41.83669 | 140.05275 | 27119 ft | 316 kts | 226° |
| 2026-04-30 08:58 | 41.81920 | 140.03493 | 27119 ft | 312 kts | 226° |
| 2026-04-30 08:58 | 41.80194 | 140.01730 | 27120 ft | 309 kts | 226° |
| 2026-04-30 08:58 | 41.78477 | 139.99986 | 27121 ft | 306 kts | 226° |
| 2026-04-30 08:59 | 41.76768 | 139.98250 | 27120 ft | 302 kts | 226° |
| 2026-04-30 08:59 | 41.75081 | 139.96535 | 27120 ft | 299 kts | 226° |
| 2026-04-30 08:59 | 41.73416 | 139.94841 | 27120 ft | 295 kts | 226° |
| 2026-04-30 08:59 | 41.71786 | 139.93187 | 27119 ft | 292 kts | 226° |
| 2026-04-30 09:00 | 41.70169 | 139.91547 | 27120 ft | 288 kts | 226° |
| 2026-04-30 09:00 | 41.68593 | 139.89951 | 27120 ft | 284 kts | 226° |
| 2026-04-30 09:00 | 41.67013 | 139.88347 | 27122 ft | 280 kts | 226° |
| 2026-04-30 09:00 | 41.65468 | 139.86789 | 27123 ft | 276 kts | 227° |
| 2026-04-30 09:01 | 41.63953 | 139.85255 | 27124 ft | 272 kts | 227° |
| 2026-04-30 09:01 | 41.62456 | 139.83743 | 27123 ft | 268 kts | 227° |
| 2026-04-30 09:01 | 41.60976 | 139.82245 | 27124 ft | 264 kts | 227° |
| 2026-04-30 09:01 | 41.59522 | 139.80777 | 27122 ft | 260 kts | 227° |
| 2026-04-30 09:02 | 41.56685 | 139.77919 | 27122 ft | 250 kts | 227° |
| 2026-04-30 09:02 | 41.55312 | 139.76533 | 27122 ft | 244 kts | 228° |
| 2026-04-30 09:02 | 41.53972 | 139.75185 | 27121 ft | 239 kts | 228° |
| 2026-04-30 09:03 | 41.52665 | 139.73868 | 27120 ft | 233 kts | 228° |
| 2026-04-30 09:03 | 41.51402 | 139.72603 | 27120 ft | 226 kts | 229° |
| 2026-04-30 09:03 | 41.50158 | 139.71352 | 27119 ft | 218 kts | 229° |
| 2026-04-30 09:03 | 41.48962 | 139.70151 | 27117 ft | 210 kts | 229° |
| 2026-04-30 09:04 | 41.47825 | 139.69009 | 27088 ft | 201 kts | 230° |
| 2026-04-30 09:04 | 41.46701 | 139.67900 | 26900 ft | 205 kts | 227° |
| 2026-04-30 09:04 | 41.45461 | 139.66836 | 26662 ft | 220 kts | 221° |
| 2026-04-30 09:04 | 41.44042 | 139.65967 | 26859 ft | 222 kts | 212° |
| 2026-04-30 09:05 | 41.42477 | 139.65329 | 26500 ft | 257 kts | 208° |
| 2026-04-30 09:05 | 41.40769 | 139.64491 | 26497 ft | 246 kts | 222° |
| 2026-04-30 09:05 | 41.39574 | 139.63312 | 27086 ft | 209 kts | 240° |
| 2026-04-30 09:05 | 41.38657 | 139.61786 | 27114 ft | 209 kts | 240° |
| 2026-04-30 09:06 | 41.37683 | 139.60313 | 27141 ft | 219 kts | 236° |
| 2026-04-30 09:06 | 41.36564 | 139.58803 | 27142 ft | 231 kts | 234° |
| 2026-04-30 09:06 | 41.35356 | 139.57285 | 27140 ft | 243 kts | 232° |
| 2026-04-30 09:06 | 41.34067 | 139.55753 | 27137 ft | 256 kts | 230° |
| 2026-04-30 09:07 | 41.32680 | 139.54182 | 27128 ft | 269 kts | 229° |
| 2026-04-30 09:07 | 41.31177 | 139.52554 | 27125 ft | 282 kts | 227° |
| 2026-04-30 09:07 | 41.29626 | 139.50909 | 27124 ft | 294 kts | 227° |
| 2026-04-30 09:07 | 41.27973 | 139.49199 | 27124 ft | 307 kts | 226° |
| 2026-04-30 09:08 | 41.26229 | 139.47426 | 27122 ft | 320 kts | 225° |
| 2026-04-30 09:08 | 41.24426 | 139.45607 | 27121 ft | 332 kts | 225° |
| 2026-04-30 09:08 | 41.22569 | 139.43732 | 27120 ft | 343 kts | 225° |
| 2026-04-30 09:08 | 41.20636 | 139.41806 | 27120 ft | 354 kts | 224° |
| 2026-04-30 09:09 | 41.18640 | 139.39818 | 27120 ft | 364 kts | 224° |
| 2026-04-30 09:09 | 41.16566 | 139.37756 | 27119 ft | 374 kts | 224° |
| 2026-04-30 09:09 | 41.14460 | 139.35666 | 27120 ft | 383 kts | 224° |
| 2026-04-30 09:09 | 41.12312 | 139.33527 | 27125 ft | 392 kts | 223° |
| 2026-04-30 09:10 | 41.10121 | 139.31354 | 27126 ft | 399 kts | 223° |
| 2026-04-30 09:10 | 41.07891 | 139.29156 | 27125 ft | 394 kts | 223° |
| 2026-04-30 09:10 | 41.05701 | 139.27004 | 27124 ft | 386 kts | 223° |
| 2026-04-30 09:10 | 41.03554 | 139.24889 | 27123 ft | 379 kts | 223° |
| 2026-04-30 09:11 | 41.01459 | 139.22821 | 27123 ft | 372 kts | 223° |
| 2026-04-30 09:11 | 40.99399 | 139.20787 | 27123 ft | 367 kts | 223° |
| 2026-04-30 09:11 | 40.97360 | 139.18771 | 27123 ft | 362 kts | 223° |
| 2026-04-30 09:11 | 40.95347 | 139.16786 | 27122 ft | 357 kts | 223° |
| 2026-04-30 09:12 | 40.93372 | 139.14842 | 27123 ft | 353 kts | 223° |
| 2026-04-30 09:12 | 40.91400 | 139.12903 | 27122 ft | 349 kts | 223° |
| 2026-04-30 09:12 | 40.89436 | 139.10973 | 27122 ft | 347 kts | 223° |
| 2026-04-30 09:12 | 40.87500 | 139.09068 | 27122 ft | 350 kts | 223° |
| 2026-04-30 09:13 | 40.85533 | 139.07140 | 27122 ft | 353 kts | 223° |
| 2026-04-30 09:13 | 40.83531 | 139.05168 | 27123 ft | 356 kts | 223° |
| 2026-04-30 09:13 | 40.81546 | 139.03229 | 27123 ft | 359 kts | 223° |
| 2026-04-30 09:13 | 40.79490 | 139.01221 | 27124 ft | 361 kts | 223° |
| 2026-04-30 09:14 | 40.77484 | 138.99262 | 27122 ft | 360 kts | 223° |
| 2026-04-30 09:14 | 40.75447 | 138.97264 | 27121 ft | 360 kts | 223° |
| 2026-04-30 09:14 | 40.73428 | 138.95291 | 27120 ft | 360 kts | 223° |
| 2026-04-30 09:14 | 40.71429 | 138.93350 | 27121 ft | 359 kts | 223° |
| 2026-04-30 09:15 | 40.69410 | 138.91367 | 27122 ft | 358 kts | 223° |
| 2026-04-30 09:15 | 40.67416 | 138.89429 | 27121 ft | 357 kts | 223° |
| 2026-04-30 09:15 | 40.65414 | 138.87486 | 27123 ft | 355 kts | 223° |
| 2026-04-30 09:15 | 40.63394 | 138.85535 | 27122 ft | 354 kts | 223° |
| 2026-04-30 09:16 | 40.61391 | 138.83585 | 27121 ft | 356 kts | 223° |
| 2026-04-30 09:16 | 40.59387 | 138.81622 | 27124 ft | 359 kts | 223° |
| 2026-04-30 09:16 | 40.57373 | 138.79658 | 27122 ft | 362 kts | 223° |
| 2026-04-30 09:16 | 40.55312 | 138.77660 | 27121 ft | 360 kts | 223° |
| 2026-04-30 09:17 | 40.53295 | 138.75705 | 27120 ft | 357 kts | 223° |
| 2026-04-30 09:17 | 40.51287 | 138.73763 | 27118 ft | 355 kts | 223° |
| 2026-04-30 09:17 | 40.49265 | 138.71808 | 27060 ft | 355 kts | 223° |
| 2026-04-30 09:17 | 40.47281 | 138.69896 | 27020 ft | 355 kts | 223° |
| 2026-04-30 09:18 | 40.45246 | 138.67937 | 27016 ft | 359 kts | 223° |
| 2026-04-30 09:18 | 40.43201 | 138.65955 | 27013 ft | 367 kts | 223° |
| 2026-04-30 09:18 | 40.41125 | 138.63943 | 27081 ft | 373 kts | 223° |
| 2026-04-30 09:18 | 40.39030 | 138.61925 | 27109 ft | 371 kts | 222° |
| 2026-04-30 09:19 | 40.36971 | 138.59937 | 27117 ft | 367 kts | 223° |
| 2026-04-30 09:19 | 40.34919 | 138.57959 | 27120 ft | 360 kts | 223° |
| 2026-04-30 09:19 | 40.32921 | 138.56032 | 27116 ft | 355 kts | 223° |
| 2026-04-30 09:19 | 40.30928 | 138.54120 | 27117 ft | 350 kts | 223° |
| 2026-04-30 09:20 | 40.28994 | 138.52263 | 27115 ft | 345 kts | 223° |
| 2026-04-30 09:20 | 40.27049 | 138.50413 | 27115 ft | 340 kts | 223° |
| 2026-04-30 09:20 | 40.25172 | 138.48613 | 27113 ft | 335 kts | 223° |
| 2026-04-30 09:20 | 40.23295 | 138.46806 | 27116 ft | 330 kts | 223° |
| 2026-04-30 09:21 | 40.21437 | 138.45026 | 27110 ft | 327 kts | 223° |
| 2026-04-30 09:21 | 40.19621 | 138.43298 | 27112 ft | 322 kts | 223° |
| 2026-04-30 09:21 | 40.17810 | 138.41562 | 27113 ft | 319 kts | 223° |
| 2026-04-30 09:21 | 40.16038 | 138.39873 | 27111 ft | 315 kts | 224° |
| 2026-04-30 09:22 | 40.14261 | 138.38176 | 27112 ft | 312 kts | 223° |
| 2026-04-30 09:22 | 40.12511 | 138.36500 | 27111 ft | 308 kts | 224° |
| 2026-04-30 09:22 | 40.10796 | 138.34850 | 27113 ft | 306 kts | 223° |
| 2026-04-30 09:22 | 40.09096 | 138.33241 | 27117 ft | 303 kts | 223° |
| 2026-04-30 09:23 | 40.07390 | 138.31619 | 27116 ft | 300 kts | 223° |
| 2026-04-30 09:23 | 40.05717 | 138.30014 | 27113 ft | 298 kts | 223° |
| 2026-04-30 09:23 | 40.04034 | 138.28421 | 27107 ft | 296 kts | 223° |
| 2026-04-30 09:23 | 40.02380 | 138.26843 | 27108 ft | 293 kts | 223° |
| 2026-04-30 09:24 | 40.00727 | 138.25276 | 27108 ft | 291 kts | 223° |
| 2026-04-30 09:24 | 39.99094 | 138.23734 | 27109 ft | 289 kts | 223° |
| 2026-04-30 09:24 | 39.97485 | 138.22201 | 27107 ft | 287 kts | 223° |
| 2026-04-30 09:24 | 39.95864 | 138.20659 | 27104 ft | 285 kts | 223° |
| 2026-04-30 09:25 | 39.94270 | 138.19150 | 27102 ft | 283 kts | 223° |
| 2026-04-30 09:25 | 39.92684 | 138.17647 | 27100 ft | 281 kts | 223° |
| 2026-04-30 09:25 | 39.91085 | 138.16135 | 27099 ft | 279 kts | 223° |
| 2026-04-30 09:25 | 39.89526 | 138.14665 | 27103 ft | 277 kts | 223° |
| 2026-04-30 09:26 | 39.87954 | 138.13182 | 27107 ft | 275 kts | 223° |
| 2026-04-30 09:26 | 39.86410 | 138.11726 | 27105 ft | 273 kts | 224° |
| 2026-04-30 09:26 | 39.84878 | 138.10271 | 27105 ft | 271 kts | 224° |
| 2026-04-30 09:26 | 39.83344 | 138.08827 | 27103 ft | 270 kts | 223° |
| 2026-04-30 09:27 | 39.81844 | 138.07411 | 27103 ft | 268 kts | 224° |
| 2026-04-30 09:27 | 39.80325 | 138.05978 | 27102 ft | 266 kts | 223° |
| 2026-04-30 09:27 | 39.78829 | 138.04579 | 27101 ft | 264 kts | 224° |
| 2026-04-30 09:27 | 39.77356 | 138.03194 | 27099 ft | 262 kts | 224° |
| 2026-04-30 09:28 | 39.75886 | 138.01798 | 27101 ft | 259 kts | 224° |
| 2026-04-30 09:28 | 39.74426 | 138.00420 | 27099 ft | 257 kts | 224° |
| 2026-04-30 09:28 | 39.72985 | 137.99056 | 27099 ft | 255 kts | 224° |
| 2026-04-30 09:28 | 39.71569 | 137.97716 | 27097 ft | 253 kts | 224° |
| 2026-04-30 09:29 | 39.70134 | 137.96374 | 27097 ft | 250 kts | 224° |
| 2026-04-30 09:29 | 39.68725 | 137.95067 | 27098 ft | 247 kts | 224° |
| 2026-04-30 09:29 | 39.67326 | 137.93755 | 27095 ft | 245 kts | 224° |
| 2026-04-30 09:29 | 39.65968 | 137.92477 | 27096 ft | 242 kts | 224° |
| 2026-04-30 09:30 | 39.64594 | 137.91191 | 27095 ft | 239 kts | 225° |
| 2026-04-30 09:30 | 39.63262 | 137.89947 | 27095 ft | 236 kts | 225° |
| 2026-04-30 09:30 | 39.61931 | 137.88709 | 27093 ft | 233 kts | 225° |
| 2026-04-30 09:30 | 39.60617 | 137.87473 | 27093 ft | 229 kts | 225° |
| 2026-04-30 09:31 | 39.59335 | 137.86279 | 27092 ft | 226 kts | 225° |
| 2026-04-30 09:31 | 39.58067 | 137.85091 | 27092 ft | 222 kts | 225° |
| 2026-04-30 09:31 | 39.56814 | 137.83922 | 27093 ft | 217 kts | 225° |
| 2026-04-30 09:31 | 39.55603 | 137.82787 | 27095 ft | 218 kts | 225° |
| 2026-04-30 09:32 | 39.54340 | 137.81595 | 27097 ft | 226 kts | 225° |
| 2026-04-30 09:32 | 39.53033 | 137.80373 | 27094 ft | 236 kts | 225° |
| 2026-04-30 09:32 | 39.51668 | 137.79094 | 27096 ft | 247 kts | 224° |
| 2026-04-30 09:32 | 39.50248 | 137.77754 | 27096 ft | 259 kts | 224° |
| 2026-04-30 09:33 | 39.48759 | 137.76353 | 27095 ft | 273 kts | 224° |
| 2026-04-30 09:33 | 39.47172 | 137.74875 | 27095 ft | 288 kts | 223° |
| 2026-04-30 09:33 | 39.45501 | 137.73322 | 27092 ft | 302 kts | 223° |
| 2026-04-30 09:33 | 39.43751 | 137.71696 | 27092 ft | 316 kts | 223° |
| 2026-04-30 09:34 | 39.41904 | 137.69984 | 27092 ft | 330 kts | 223° |
| 2026-04-30 09:34 | 39.40019 | 137.68236 | 27090 ft | 342 kts | 222° |
| 2026-04-30 09:34 | 39.38039 | 137.66394 | 27090 ft | 355 kts | 222° |
| 2026-04-30 09:34 | 39.35984 | 137.64493 | 27088 ft | 367 kts | 222° |
| 2026-04-30 09:35 | 39.33879 | 137.62540 | 27086 ft | 374 kts | 222° |
| 2026-04-30 09:35 | 39.31741 | 137.60561 | 27082 ft | 378 kts | 222° |
| 2026-04-30 09:35 | 39.29608 | 137.58595 | 27083 ft | 377 kts | 222° |
| 2026-04-30 09:35 | 39.27490 | 137.56638 | 27082 ft | 375 kts | 222° |
| 2026-04-30 09:36 | 39.25361 | 137.54674 | 27079 ft | 374 kts | 222° |
| 2026-04-30 09:36 | 39.23256 | 137.52739 | 27078 ft | 365 kts | 222° |
| 2026-04-30 09:36 | 39.21194 | 137.50835 | 27079 ft | 361 kts | 223° |
| 2026-04-30 09:36 | 39.19149 | 137.48941 | 27079 ft | 363 kts | 223° |
| 2026-04-30 09:37 | 39.17109 | 137.47060 | 27075 ft | 353 kts | 222° |
| 2026-04-30 09:37 | 39.15138 | 137.45248 | 27074 ft | 342 kts | 223° |
| 2026-04-30 09:37 | 39.13229 | 137.43498 | 27074 ft | 334 kts | 223° |
| 2026-04-30 09:37 | 39.11333 | 137.41756 | 27073 ft | 330 kts | 223° |
| 2026-04-30 09:38 | 39.09478 | 137.40047 | 27073 ft | 326 kts | 223° |
| 2026-04-30 09:38 | 39.07643 | 137.38362 | 27074 ft | 323 kts | 223° |
| 2026-04-30 09:38 | 39.05808 | 137.36682 | 27071 ft | 320 kts | 223° |
| 2026-04-30 09:38 | 39.03984 | 137.35005 | 27074 ft | 322 kts | 223° |
| 2026-04-30 09:39 | 39.02135 | 137.33307 | 27084 ft | 324 kts | 223° |
| 2026-04-30 09:39 | 39.00306 | 137.31628 | 27086 ft | 327 kts | 223° |
| 2026-04-30 09:39 | 38.98425 | 137.29904 | 27085 ft | 329 kts | 223° |
| 2026-04-30 09:39 | 38.96553 | 137.28191 | 27085 ft | 331 kts | 223° |
| 2026-04-30 09:40 | 38.94673 | 137.26468 | 27085 ft | 333 kts | 223° |
| 2026-04-30 09:40 | 38.92779 | 137.24733 | 27083 ft | 335 kts | 222° |
| 2026-04-30 09:40 | 38.90871 | 137.22996 | 27084 ft | 337 kts | 222° |
| 2026-04-30 09:40 | 38.88944 | 137.21242 | 27085 ft | 339 kts | 223° |
| 2026-04-30 09:41 | 38.87005 | 137.19472 | 27084 ft | 340 kts | 223° |
| 2026-04-30 09:41 | 38.85070 | 137.17708 | 27083 ft | 342 kts | 223° |
| 2026-04-30 09:41 | 38.83106 | 137.15924 | 27083 ft | 343 kts | 222° |
| 2026-04-30 09:41 | 38.81148 | 137.14140 | 27082 ft | 345 kts | 223° |
| 2026-04-30 09:42 | 38.79179 | 137.12344 | 27080 ft | 346 kts | 223° |
| 2026-04-30 09:42 | 38.77199 | 137.10547 | 27079 ft | 347 kts | 222° |
| 2026-04-30 09:42 | 38.75240 | 137.08768 | 27078 ft | 348 kts | 223° |
| 2026-04-30 09:42 | 38.73251 | 137.06963 | 27075 ft | 349 kts | 222° |
| 2026-04-30 09:43 | 38.71247 | 137.05144 | 27072 ft | 350 kts | 222° |
| 2026-04-30 09:43 | 38.69249 | 137.03334 | 27068 ft | 351 kts | 222° |
| 2026-04-30 09:43 | 38.67263 | 137.01537 | 27064 ft | 352 kts | 222° |
| 2026-04-30 09:43 | 38.65247 | 136.99709 | 27061 ft | 352 kts | 222° |
| 2026-04-30 09:44 | 38.63255 | 136.97911 | 27060 ft | 353 kts | 222° |
| 2026-04-30 09:44 | 38.61239 | 136.96091 | 27058 ft | 353 kts | 222° |
| 2026-04-30 09:44 | 38.59228 | 136.94275 | 27058 ft | 354 kts | 222° |
| 2026-04-30 09:44 | 38.57214 | 136.92456 | 27058 ft | 354 kts | 222° |
| 2026-04-30 09:45 | 38.55177 | 136.90617 | 27058 ft | 354 kts | 222° |
| 2026-04-30 09:45 | 38.53162 | 136.88800 | 27056 ft | 354 kts | 222° |
| 2026-04-30 09:45 | 38.51149 | 136.86986 | 27057 ft | 355 kts | 222° |
| 2026-04-30 09:45 | 38.49130 | 136.85170 | 27056 ft | 355 kts | 222° |
| 2026-04-30 09:46 | 38.47111 | 136.83356 | 27055 ft | 355 kts | 222° |
| 2026-04-30 09:46 | 38.45066 | 136.81522 | 27054 ft | 354 kts | 222° |
| 2026-04-30 09:46 | 38.43050 | 136.79713 | 27054 ft | 353 kts | 222° |
| 2026-04-30 09:46 | 38.41045 | 136.77914 | 27052 ft | 352 kts | 222° |
| 2026-04-30 09:47 | 38.39042 | 136.76115 | 27052 ft | 350 kts | 222° |
| 2026-04-30 09:47 | 38.37053 | 136.74330 | 27051 ft | 349 kts | 223° |
| 2026-04-30 09:47 | 38.35069 | 136.72551 | 27050 ft | 348 kts | 223° |
| 2026-04-30 09:47 | 38.33061 | 136.70755 | 27050 ft | 347 kts | 223° |
| 2026-04-30 09:48 | 38.31092 | 136.68994 | 27050 ft | 346 kts | 223° |
| 2026-04-30 09:48 | 38.29135 | 136.67244 | 27049 ft | 345 kts | 223° |
| 2026-04-30 09:48 | 38.27156 | 136.65477 | 27048 ft | 344 kts | 223° |
| 2026-04-30 09:48 | 38.25190 | 136.63722 | 27047 ft | 343 kts | 223° |
| 2026-04-30 09:49 | 38.23253 | 136.61995 | 27047 ft | 342 kts | 223° |
| 2026-04-30 09:49 | 38.21287 | 136.60245 | 27046 ft | 341 kts | 223° |
| 2026-04-30 09:49 | 38.19350 | 136.58517 | 27046 ft | 340 kts | 223° |
| 2026-04-30 09:49 | 38.17400 | 136.56779 | 27045 ft | 339 kts | 223° |
| 2026-04-30 09:50 | 38.15483 | 136.55077 | 27044 ft | 338 kts | 223° |
| 2026-04-30 09:50 | 38.13547 | 136.53355 | 27044 ft | 337 kts | 223° |
| 2026-04-30 09:50 | 38.11607 | 136.51633 | 27044 ft | 336 kts | 223° |
| 2026-04-30 09:50 | 38.09685 | 136.49925 | 27043 ft | 335 kts | 223° |
| 2026-04-30 09:51 | 38.07769 | 136.48224 | 27043 ft | 335 kts | 223° |
| 2026-04-30 09:51 | 38.05874 | 136.46544 | 27042 ft | 334 kts | 223° |
| 2026-04-30 09:51 | 38.03962 | 136.44849 | 27042 ft | 333 kts | 223° |
| 2026-04-30 09:51 | 38.02044 | 136.43147 | 27041 ft | 332 kts | 223° |
| 2026-04-30 09:52 | 38.00160 | 136.41479 | 27040 ft | 332 kts | 223° |
| 2026-04-30 09:52 | 37.98254 | 136.39795 | 27040 ft | 331 kts | 223° |
| 2026-04-30 09:52 | 37.96351 | 136.38113 | 27040 ft | 330 kts | 223° |
| 2026-04-30 09:52 | 37.94455 | 136.36438 | 27035 ft | 330 kts | 223° |
| 2026-04-30 09:53 | 37.92580 | 136.34786 | 27034 ft | 329 kts | 222° |
| 2026-04-30 09:53 | 37.90696 | 136.33122 | 27046 ft | 328 kts | 222° |
| 2026-04-30 09:53 | 37.88800 | 136.31455 | 27051 ft | 328 kts | 222° |
| 2026-04-30 09:53 | 37.86927 | 136.29802 | 27059 ft | 328 kts | 222° |
| 2026-04-30 09:54 | 37.85040 | 136.28140 | 27060 ft | 328 kts | 222° |
| 2026-04-30 09:54 | 37.83169 | 136.26497 | 27059 ft | 328 kts | 222° |
| 2026-04-30 09:54 | 37.81278 | 136.24835 | 27059 ft | 329 kts | 222° |
| 2026-04-30 09:54 | 37.79399 | 136.23181 | 27057 ft | 329 kts | 222° |
| 2026-04-30 09:55 | 37.77509 | 136.21521 | 27055 ft | 329 kts | 222° |
| 2026-04-30 09:55 | 37.75612 | 136.19859 | 27055 ft | 329 kts | 222° |
| 2026-04-30 09:55 | 37.73741 | 136.18218 | 27054 ft | 329 kts | 222° |
| 2026-04-30 09:55 | 37.71841 | 136.16550 | 27054 ft | 329 kts | 222° |
| 2026-04-30 09:56 | 37.69965 | 136.14906 | 27053 ft | 329 kts | 222° |
| 2026-04-30 09:56 | 37.68063 | 136.13243 | 27053 ft | 329 kts | 222° |
| 2026-04-30 09:56 | 37.66168 | 136.11580 | 27052 ft | 329 kts | 222° |
| 2026-04-30 09:56 | 37.64290 | 136.09938 | 27052 ft | 329 kts | 222° |
| 2026-04-30 09:57 | 37.62409 | 136.08296 | 27051 ft | 329 kts | 222° |
| 2026-04-30 09:57 | 37.60512 | 136.06636 | 27051 ft | 329 kts | 222° |
| 2026-04-30 09:57 | 37.58614 | 136.04977 | 27050 ft | 329 kts | 222° |
| 2026-04-30 09:57 | 37.56749 | 136.03349 | 27049 ft | 329 kts | 222° |
| 2026-04-30 09:58 | 37.54855 | 136.01701 | 27048 ft | 329 kts | 222° |
| 2026-04-30 09:58 | 37.52959 | 136.00055 | 27048 ft | 328 kts | 222° |
| 2026-04-30 09:58 | 37.51075 | 135.98415 | 27048 ft | 328 kts | 222° |
| 2026-04-30 09:58 | 37.49205 | 135.96785 | 27048 ft | 328 kts | 222° |
| 2026-04-30 09:59 | 37.45439 | 135.93512 | 27047 ft | 328 kts | 221° |
| 2026-04-30 09:59 | 37.41665 | 135.90242 | 27046 ft | 327 kts | 221° |
| 2026-04-30 10:00 | 37.37920 | 135.86989 | 27043 ft | 327 kts | 221° |
| 2026-04-30 10:00 | 37.36020 | 135.85344 | 27043 ft | 326 kts | 221° |
| 2026-04-30 10:01 | 37.32295 | 135.82121 | 27042 ft | 325 kts | 221° |
| 2026-04-30 10:01 | 37.30425 | 135.80501 | 27041 ft | 325 kts | 221° |
| 2026-04-30 10:01 | 37.28549 | 135.78883 | 27041 ft | 325 kts | 221° |
| 2026-04-30 10:02 | 37.24800 | 135.75648 | 27037 ft | 324 kts | 221° |
| 2026-04-30 10:02 | 37.22953 | 135.74059 | 27036 ft | 324 kts | 221° |
| 2026-04-30 10:02 | 37.21081 | 135.72444 | 27033 ft | 323 kts | 221° |
| 2026-04-30 10:02 | 37.19214 | 135.70833 | 27032 ft | 323 kts | 221° |
| 2026-04-30 10:03 | 37.17366 | 135.69243 | 27031 ft | 323 kts | 221° |
| 2026-04-30 10:03 | 37.15506 | 135.67642 | 27031 ft | 322 kts | 221° |
| 2026-04-30 10:03 | 37.13660 | 135.66051 | 27030 ft | 322 kts | 221° |
| 2026-04-30 10:03 | 37.11805 | 135.64455 | 27030 ft | 321 kts | 221° |
| 2026-04-30 10:04 | 37.09951 | 135.62865 | 27029 ft | 321 kts | 221° |
| 2026-04-30 10:04 | 37.08089 | 135.61269 | 27029 ft | 321 kts | 221° |
| 2026-04-30 10:04 | 37.06256 | 135.59698 | 27029 ft | 320 kts | 221° |
| 2026-04-30 10:04 | 37.04402 | 135.58109 | 27028 ft | 320 kts | 221° |
| 2026-04-30 10:05 | 37.02571 | 135.56540 | 27027 ft | 319 kts | 221° |
| 2026-04-30 10:05 | 37.00726 | 135.54961 | 27026 ft | 319 kts | 221° |
| 2026-04-30 10:05 | 36.98879 | 135.53378 | 27026 ft | 319 kts | 220° |
| 2026-04-30 10:05 | 36.97036 | 135.51799 | 27025 ft | 318 kts | 220° |
| 2026-04-30 10:06 | 36.95217 | 135.50243 | 27025 ft | 318 kts | 220° |
| 2026-04-30 10:06 | 36.93366 | 135.48665 | 27024 ft | 319 kts | 220° |
| 2026-04-30 10:06 | 36.91543 | 135.47108 | 27024 ft | 319 kts | 220° |
| 2026-04-30 10:06 | 36.89688 | 135.45525 | 27024 ft | 319 kts | 220° |
| 2026-04-30 10:07 | 36.87829 | 135.43939 | 27030 ft | 320 kts | 220° |
| 2026-04-30 10:07 | 36.85979 | 135.42362 | 27030 ft | 320 kts | 220° |
| 2026-04-30 10:07 | 36.84126 | 135.40781 | 27030 ft | 321 kts | 220° |
| 2026-04-30 10:07 | 36.82269 | 135.39200 | 27030 ft | 322 kts | 220° |
| 2026-04-30 10:08 | 36.80422 | 135.37633 | 27029 ft | 322 kts | 220° |
| 2026-04-30 10:08 | 36.78556 | 135.36049 | 27028 ft | 323 kts | 220° |
| 2026-04-30 10:08 | 36.76684 | 135.34460 | 27034 ft | 323 kts | 220° |
| 2026-04-30 10:08 | 36.74799 | 135.32860 | 27040 ft | 324 kts | 219° |
| 2026-04-30 10:09 | 36.72927 | 135.31271 | 27040 ft | 325 kts | 219° |
| 2026-04-30 10:09 | 36.71062 | 135.29686 | 27040 ft | 326 kts | 219° |
| 2026-04-30 10:09 | 36.69171 | 135.28084 | 27039 ft | 326 kts | 219° |
| 2026-04-30 10:09 | 36.67292 | 135.26494 | 27040 ft | 327 kts | 219° |
| 2026-04-30 10:10 | 36.65393 | 135.24886 | 27038 ft | 328 kts | 219° |
| 2026-04-30 10:10 | 36.63479 | 135.23262 | 27038 ft | 329 kts | 219° |
| 2026-04-30 10:10 | 36.61592 | 135.21668 | 27036 ft | 329 kts | 219° |
| 2026-04-30 10:10 | 36.59685 | 135.20058 | 27035 ft | 330 kts | 219° |
| 2026-04-30 10:11 | 36.57781 | 135.18448 | 27034 ft | 330 kts | 219° |
| 2026-04-30 10:11 | 36.55870 | 135.16836 | 27033 ft | 331 kts | 219° |
| 2026-04-30 10:11 | 36.53939 | 135.15208 | 27032 ft | 331 kts | 219° |
| 2026-04-30 10:11 | 36.52040 | 135.13606 | 27033 ft | 331 kts | 219° |
| 2026-04-30 10:12 | 36.50113 | 135.11981 | 27033 ft | 332 kts | 219° |
| 2026-04-30 10:12 | 36.48198 | 135.10371 | 27034 ft | 332 kts | 219° |
| 2026-04-30 10:12 | 36.46259 | 135.08740 | 27036 ft | 332 kts | 219° |
| 2026-04-30 10:12 | 36.44342 | 135.07129 | 27036 ft | 332 kts | 219° |
| 2026-04-30 10:13 | 36.42415 | 135.05513 | 27034 ft | 333 kts | 219° |
| 2026-04-30 10:13 | 36.40483 | 135.03889 | 27033 ft | 333 kts | 219° |
| 2026-04-30 10:13 | 36.38552 | 135.02269 | 27032 ft | 333 kts | 219° |
| 2026-04-30 10:13 | 36.36637 | 135.00664 | 27030 ft | 333 kts | 219° |
| 2026-04-30 10:14 | 36.34698 | 134.99037 | 27029 ft | 333 kts | 219° |
| 2026-04-30 10:14 | 36.32754 | 134.97406 | 27028 ft | 333 kts | 219° |
| 2026-04-30 10:14 | 36.28900 | 134.94179 | 27024 ft | 333 kts | 219° |
| 2026-04-30 10:15 | 36.26965 | 134.92564 | 27023 ft | 334 kts | 219° |
| 2026-04-30 10:15 | 36.25091 | 134.90999 | 27020 ft | 333 kts | 219° |
| 2026-04-30 10:15 | 36.23157 | 134.89381 | 27019 ft | 333 kts | 219° |
| 2026-04-30 10:15 | 36.21218 | 134.87764 | 27018 ft | 333 kts | 219° |
| 2026-04-30 10:16 | 36.19278 | 134.86144 | 27016 ft | 333 kts | 219° |
| 2026-04-30 10:16 | 36.17366 | 134.84546 | 27014 ft | 333 kts | 219° |
| 2026-04-30 10:16 | 36.15432 | 134.82936 | 27013 ft | 333 kts | 219° |
| 2026-04-30 10:17 | 36.11538 | 134.79698 | 27012 ft | 333 kts | 219° |
| 2026-04-30 10:17 | 36.07688 | 134.76497 | 27008 ft | 333 kts | 218° |
| 2026-04-30 10:17 | 36.05758 | 134.74895 | 27002 ft | 333 kts | 218° |
| 2026-04-30 10:18 | 36.03828 | 134.73290 | 26995 ft | 333 kts | 218° |
| 2026-04-30 10:18 | 36.01890 | 134.71680 | 26987 ft | 333 kts | 218° |
| 2026-04-30 10:18 | 35.99958 | 134.70075 | 26981 ft | 333 kts | 218° |
| 2026-04-30 10:19 | 35.96082 | 134.66864 | 26976 ft | 333 kts | 218° |
| 2026-04-30 10:19 | 35.94165 | 134.65277 | 26975 ft | 332 kts | 218° |
| 2026-04-30 10:19 | 35.92235 | 134.63681 | 26969 ft | 332 kts | 218° |
| 2026-04-30 10:19 | 35.90296 | 134.62077 | 26966 ft | 331 kts | 218° |
| 2026-04-30 10:20 | 35.88580 | 134.60660 | 26972 ft | 331 kts | 218° |
| 2026-04-30 10:20 | 35.85290 | 134.57944 | 26979 ft | 331 kts | 218° |
| 2026-04-30 10:20 | 35.83349 | 134.56343 | 26984 ft | 331 kts | 218° |
| 2026-04-30 10:21 | 35.81413 | 134.54746 | 26985 ft | 332 kts | 218° |
| 2026-04-30 10:21 | 35.79489 | 134.53160 | 26984 ft | 332 kts | 218° |
| 2026-04-30 10:21 | 35.77546 | 134.51559 | 26982 ft | 333 kts | 218° |
| 2026-04-30 10:21 | 35.75605 | 134.49963 | 26980 ft | 334 kts | 218° |
| 2026-04-30 10:22 | 35.73672 | 134.48372 | 26978 ft | 334 kts | 218° |
| 2026-04-30 10:22 | 35.71711 | 134.46761 | 26977 ft | 334 kts | 218° |
| 2026-04-30 10:22 | 35.69821 | 134.45207 | 26976 ft | 335 kts | 218° |
| 2026-04-30 10:22 | 35.67865 | 134.43602 | 26976 ft | 335 kts | 218° |
| 2026-04-30 10:23 | 35.65908 | 134.41995 | 26975 ft | 335 kts | 218° |
| 2026-04-30 10:23 | 35.63958 | 134.40396 | 26975 ft | 335 kts | 218° |
| 2026-04-30 10:23 | 35.61994 | 134.38786 | 26975 ft | 335 kts | 218° |
| 2026-04-30 10:23 | 35.60035 | 134.37183 | 26974 ft | 336 kts | 218° |
| 2026-04-30 10:24 | 35.58074 | 134.35576 | 26973 ft | 336 kts | 218° |
| 2026-04-30 10:24 | 35.56099 | 134.33962 | 26980 ft | 336 kts | 217° |
| 2026-04-30 10:24 | 35.54133 | 134.32353 | 26983 ft | 336 kts | 217° |
| 2026-04-30 10:24 | 35.52175 | 134.30753 | 26982 ft | 337 kts | 217° |
| 2026-04-30 10:25 | 35.50210 | 134.29147 | 26980 ft | 338 kts | 217° |
| 2026-04-30 10:25 | 35.48231 | 134.27533 | 26979 ft | 338 kts | 217° |
| 2026-04-30 10:25 | 35.46254 | 134.25920 | 26976 ft | 339 kts | 217° |
| 2026-04-30 10:25 | 35.44282 | 134.24312 | 26975 ft | 339 kts | 217° |
| 2026-04-30 10:26 | 35.42296 | 134.22694 | 26975 ft | 339 kts | 217° |
| 2026-04-30 10:26 | 35.40305 | 134.21074 | 26975 ft | 340 kts | 217° |
| 2026-04-30 10:26 | 35.38106 | 134.19882 | 26995 ft | 351 kts | 198° |
| 2026-04-30 10:26 | 35.35590 | 134.19884 | 27010 ft | 373 kts | 176° |
| 2026-04-30 10:27 | 35.33111 | 134.21190 | 27015 ft | 400 kts | 155° |
| 2026-04-30 10:27 | 35.31099 | 134.23645 | 27017 ft | 426 kts | 133° |
| 2026-04-30 10:27 | 35.29808 | 134.27087 | 27018 ft | 450 kts | 111° |
| 2026-04-30 10:27 | 35.29433 | 134.30922 | 27010 ft | 462 kts | 99° |
| 2026-04-30 10:28 | 35.29145 | 134.34894 | 26970 ft | 460 kts | 104° |
| 2026-04-30 10:28 | 35.28637 | 134.38771 | 26904 ft | 460 kts | 107° |
| 2026-04-30 10:28 | 35.28042 | 134.42610 | 26809 ft | 462 kts | 108° |
| 2026-04-30 10:28 | 35.27385 | 134.46480 | 26687 ft | 465 kts | 109° |
| 2026-04-30 10:29 | 35.26689 | 134.50383 | 26537 ft | 469 kts | 109° |
| 2026-04-30 10:29 | 35.25983 | 134.54311 | 26541 ft | 468 kts | 109° |
| 2026-04-30 10:29 | 35.25275 | 134.58195 | 26655 ft | 463 kts | 109° |
| 2026-04-30 10:29 | 35.24562 | 134.62062 | 26777 ft | 458 kts | 109° |
| 2026-04-30 10:30 | 35.23857 | 134.65861 | 26881 ft | 454 kts | 110° |
| 2026-04-30 10:30 | 35.23149 | 134.69655 | 26948 ft | 451 kts | 110° |
| 2026-04-30 10:30 | 35.22442 | 134.73430 | 26990 ft | 450 kts | 110° |
| 2026-04-30 10:30 | 35.21737 | 134.77181 | 27001 ft | 451 kts | 110° |
| 2026-04-30 10:31 | 35.21028 | 134.80946 | 27003 ft | 452 kts | 110° |
| 2026-04-30 10:31 | 35.20318 | 134.84712 | 27003 ft | 453 kts | 110° |
| 2026-04-30 10:31 | 35.19609 | 134.88472 | 26989 ft | 454 kts | 110° |
| 2026-04-30 10:31 | 35.18909 | 134.92194 | 26996 ft | 441 kts | 110° |
| 2026-04-30 10:32 | 35.18225 | 134.95828 | 26824 ft | 433 kts | 111° |
| 2026-04-30 10:32 | 35.17525 | 134.99483 | 26325 ft | 435 kts | 111° |
| 2026-04-30 10:32 | 35.16845 | 135.03058 | 26011 ft | 431 kts | 110° |
| 2026-04-30 10:32 | 35.16163 | 135.06645 | 25603 ft | 428 kts | 110° |
| 2026-04-30 10:33 | 35.15484 | 135.10204 | 25182 ft | 426 kts | 110° |
| 2026-04-30 10:33 | 35.14810 | 135.13734 | 24801 ft | 423 kts | 110° |
| 2026-04-30 10:33 | 35.14138 | 135.17248 | 24380 ft | 421 kts | 110° |
| 2026-04-30 10:33 | 35.13471 | 135.20726 | 23978 ft | 418 kts | 110° |
| 2026-04-30 10:34 | 35.12802 | 135.24208 | 23575 ft | 416 kts | 109° |
| 2026-04-30 10:34 | 35.12138 | 135.27663 | 23178 ft | 414 kts | 109° |
| 2026-04-30 10:34 | 35.11488 | 135.31047 | 22800 ft | 411 kts | 109° |
| 2026-04-30 10:34 | 35.10847 | 135.34464 | 22433 ft | 408 kts | 108° |
| 2026-04-30 10:35 | 35.10218 | 135.37828 | 21981 ft | 403 kts | 108° |
| 2026-04-30 10:35 | 35.09587 | 135.41173 | 21415 ft | 402 kts | 108° |
| 2026-04-30 10:35 | 35.08963 | 135.44488 | 20948 ft | 397 kts | 108° |
| 2026-04-30 10:35 | 35.08344 | 135.47769 | 20476 ft | 393 kts | 108° |
| 2026-04-30 10:36 | 35.07731 | 135.51012 | 20001 ft | 390 kts | 107° |
| 2026-04-30 10:36 | 35.07124 | 135.54215 | 19537 ft | 386 kts | 107° |
| 2026-04-30 10:36 | 35.06517 | 135.57413 | 19064 ft | 382 kts | 107° |
| 2026-04-30 10:36 | 35.05918 | 135.60567 | 18592 ft | 379 kts | 107° |
| 2026-04-30 10:37 | 35.05316 | 135.63730 | 18122 ft | 375 kts | 107° |
| 2026-04-30 10:37 | 35.04728 | 135.66811 | 17661 ft | 372 kts | 107° |
| 2026-04-30 10:37 | 35.04136 | 135.69917 | 17191 ft | 368 kts | 107° |
| 2026-04-30 10:37 | 35.03561 | 135.72925 | 16734 ft | 365 kts | 107° |
| 2026-04-30 10:38 | 35.02983 | 135.75940 | 16277 ft | 361 kts | 107° |
| 2026-04-30 10:38 | 35.02409 | 135.78935 | 15820 ft | 358 kts | 107° |
| 2026-04-30 10:38 | 35.01892 | 135.81892 | 15365 ft | 357 kts | 98° |
| 2026-04-30 10:38 | 35.02079 | 135.84914 | 14883 ft | 358 kts | 75° |
| 2026-04-30 10:39 | 35.02819 | 135.87799 | 14474 ft | 353 kts | 72° |
| 2026-04-30 10:39 | 35.03531 | 135.90655 | 14024 ft | 350 kts | 73° |
| 2026-04-30 10:39 | 35.04211 | 135.93483 | 13599 ft | 347 kts | 74° |
| 2026-04-30 10:39 | 35.04886 | 135.96323 | 13157 ft | 344 kts | 74° |
| 2026-04-30 10:40 | 35.05543 | 135.99126 | 12733 ft | 341 kts | 74° |
| 2026-04-30 10:40 | 35.06190 | 136.01901 | 12309 ft | 339 kts | 75° |
| 2026-04-30 10:40 | 35.06826 | 136.04658 | 11894 ft | 336 kts | 75° |
| 2026-04-30 10:40 | 35.07455 | 136.07396 | 11488 ft | 333 kts | 75° |
| 2026-04-30 10:41 | 35.08080 | 136.10120 | 11081 ft | 330 kts | 75° |
| 2026-04-30 10:41 | 35.08696 | 136.12801 | 10693 ft | 327 kts | 74° |
| 2026-04-30 10:41 | 35.09304 | 136.15469 | 10328 ft | 323 kts | 75° |
| 2026-04-30 10:41 | 35.09907 | 136.18111 | 9993 ft | 318 kts | 75° |
| 2026-04-30 10:42 | 35.10491 | 136.20668 | 9647 ft | 314 kts | 76° |
| 2026-04-30 10:42 | 35.11074 | 136.23233 | 9305 ft | 309 kts | 76° |
| 2026-04-30 10:42 | 35.11297 | 136.25803 | 8927 ft | 300 kts | 101° |
| 2026-04-30 10:42 | 35.10593 | 136.28134 | 8620 ft | 288 kts | 123° |
| 2026-04-30 10:43 | 35.09541 | 136.30191 | 8306 ft | 282 kts | 124° |
| 2026-04-30 10:43 | 35.08531 | 136.32233 | 7977 ft | 278 kts | 123° |
| 2026-04-30 10:43 | 35.07558 | 136.34267 | 7626 ft | 275 kts | 122° |
| 2026-04-30 10:43 | 35.06603 | 136.36278 | 7238 ft | 273 kts | 122° |
| 2026-04-30 10:44 | 35.05656 | 136.38286 | 6887 ft | 270 kts | 122° |
| 2026-04-30 10:44 | 35.04729 | 136.40295 | 6511 ft | 268 kts | 117° |
| 2026-04-30 10:44 | 35.04361 | 136.42531 | 6141 ft | 273 kts | 86° |
| 2026-04-30 10:44 | 35.05030 | 136.44661 | 6024 ft | 270 kts | 55° |
| 2026-04-30 10:45 | 35.06476 | 136.46083 | 6010 ft | 267 kts | 34° |
| 2026-04-30 10:45 | 35.08059 | 136.47385 | 6006 ft | 278 kts | 41° |
| 2026-04-30 10:45 | 35.09558 | 136.48914 | 5996 ft | 284 kts | 45° |
| 2026-04-30 10:45 | 35.11005 | 136.50604 | 5999 ft | 282 kts | 49° |
| 2026-04-30 10:46 | 35.12324 | 136.52348 | 5998 ft | 280 kts | 52° |
| 2026-04-30 10:46 | 35.13564 | 136.54192 | 6004 ft | 278 kts | 56° |
| 2026-04-30 10:46 | 35.14724 | 136.56076 | 5999 ft | 271 kts | 59° |
| 2026-04-30 10:46 | 35.15751 | 136.58037 | 5566 ft | 272 kts | 62° |
| 2026-04-30 10:47 | 35.16679 | 136.60051 | 5203 ft | 269 kts | 65° |
| 2026-04-30 10:47 | 35.17514 | 136.62076 | 5030 ft | 261 kts | 68° |
| 2026-04-30 10:47 | 35.18233 | 136.64072 | 5005 ft | 257 kts | 72° |
| 2026-04-30 10:47 | 35.18868 | 136.66113 | 4988 ft | 253 kts | 74° |
| 2026-04-30 10:48 | 35.19411 | 136.68169 | 5013 ft | 249 kts | 76° |
| 2026-04-30 10:48 | 35.19795 | 136.70279 | 5013 ft | 243 kts | 92° |
| 2026-04-30 10:48 | 35.19387 | 136.72180 | 4929 ft | 230 kts | 125° |
| 2026-04-30 10:48 | 35.18162 | 136.73424 | 4461 ft | 237 kts | 160° |
| 2026-04-30 10:49 | 35.16517 | 136.73685 | 4271 ft | 234 kts | 175° |
| 2026-04-30 10:49 | 35.14886 | 136.73833 | 4043 ft | 231 kts | 172° |
| 2026-04-30 10:49 | 35.13292 | 136.74056 | 4006 ft | 231 kts | 172° |
| 2026-04-30 10:49 | 35.11679 | 136.74310 | 4001 ft | 230 kts | 167° |
| 2026-04-30 10:50 | 35.10134 | 136.74689 | 3999 ft | 222 kts | 166° |
| 2026-04-30 10:50 | 35.08672 | 136.75044 | 3989 ft | 203 kts | 167° |
| 2026-04-30 10:50 | 35.07344 | 136.75366 | 3944 ft | 186 kts | 166° |
| 2026-04-30 10:50 | 35.06117 | 136.75664 | 3738 ft | 174 kts | 166° |
| 2026-04-30 10:51 | 35.04997 | 136.75937 | 3529 ft | 163 kts | 165° |
| 2026-04-30 10:51 | 35.04034 | 136.76170 | 3339 ft | 153 kts | 165° |
| 2026-04-30 10:51 | 35.03062 | 136.76401 | 3158 ft | 134 kts | 165° |
| 2026-04-30 10:51 | 35.02150 | 136.76622 | 2995 ft | 131 kts | 165° |
| 2026-04-30 10:52 | 35.01249 | 136.76839 | 2836 ft | 129 kts | 164° |
| 2026-04-30 10:52 | 35.00387 | 136.77048 | 2665 ft | 120 kts | 164° |
| 2026-04-30 10:52 | 34.99591 | 136.77239 | 2497 ft | 113 kts | 163° |
| 2026-04-30 10:52 | 34.98829 | 136.77425 | 2352 ft | 113 kts | 163° |
| 2026-04-30 10:53 | 34.98040 | 136.77617 | 2193 ft | 118 kts | 164° |
| 2026-04-30 10:53 | 34.97209 | 136.77821 | 2030 ft | 123 kts | 164° |
| 2026-04-30 10:53 | 34.96351 | 136.78030 | 1857 ft | 128 kts | 164° |
| 2026-04-30 10:53 | 34.95467 | 136.78244 | 1678 ft | 131 kts | 165° |
| 2026-04-30 10:54 | 34.94570 | 136.78456 | 1492 ft | 131 kts | 165° |
| 2026-04-30 10:54 | 34.93660 | 136.78673 | 1306 ft | 131 kts | 165° |
| 2026-04-30 10:54 | 34.92760 | 136.78888 | 1121 ft | 131 kts | 166° |
| 2026-04-30 10:54 | 34.91866 | 136.79102 | 939 ft | 128 kts | 167° |
| 2026-04-30 10:55 | 34.90989 | 136.79312 | 762 ft | 126 kts | 168° |
| 2026-04-30 10:55 | 34.90126 | 136.79518 | 592 ft | 126 kts | 169° |
| 2026-04-30 10:55 | 34.89256 | 136.79726 | 422 ft | 127 kts | 168° |
| 2026-04-30 10:55 | 34.88380 | 136.79935 | 252 ft | 126 kts | 169° |
| 2026-04-30 10:56 | 34.87517 | 136.80138 | 74 ft | 127 kts | 168° |
| 2026-04-30 10:56 | 34.86674 | 136.80344 | 9 ft | 114 kts | 168° |
| 2026-04-30 10:56 | 34.86108 | 136.80486 | 9 ft | 47 kts | 169° |
| 2026-04-30 10:56 | 34.85926 | 136.80528 | 9 ft | 16 kts | 160° |
| 2026-04-30 10:57 | 34.85822 | 136.80597 | 9 ft | 17 kts | 142° |
| 2026-04-30 10:57 | 34.85753 | 136.80667 | 9 ft | 12 kts | 138° |
| 2026-04-30 10:57 | 34.85686 | 136.80742 | 9 ft | 13 kts | 137° |
| 2026-04-30 10:57 | 34.85616 | 136.80818 | 9 ft | 13 kts | 140° |
| 2026-04-30 10:58 | 34.85569 | 136.80885 | 9 ft | 8 kts | 97° |
| 2026-04-30 10:58 | 34.85596 | 136.80943 | 9 ft | 8 kts | 22° |
| 2026-04-30 10:58 | 34.85645 | 136.80965 | 9 ft | 7 kts | 52° |
| 2026-04-30 10:58 | 34.85664 | 136.81003 | 9 ft | 4 kts | 31° |
| 2026-04-30 10:59 | 34.85699 | 136.81012 | 9 ft | 5 kts | 9° |
| 2026-04-30 10:59 | 34.85736 | 136.81021 | 9 ft | 4 kts | 9° |
| 2026-04-30 10:59 | 34.85753 | 136.81024 | 9 ft | 1 kts | 8° |
| 2026-04-30 10:59 | 34.85762 | 136.81026 | 9 ft | 0 kts | 8° |